createdAt,value
2023-02-18T00:00:36.787Z,3.30
2023-02-18T00:01:36.785Z,3.20
2023-02-18T00:02:36.789Z,3.20
2023-02-18T00:03:36.789Z,2.90
2023-02-18T00:04:36.749Z,2.60
2023-02-18T00:05:36.738Z,4.00
2023-02-18T00:06:36.740Z,2.60
2023-02-18T00:07:36.722Z,2.70
2023-02-18T00:08:36.697Z,3.10
2023-02-18T00:09:36.683Z,3.20
2023-02-18T00:10:36.677Z,2.80
2023-02-18T00:11:36.658Z,3.60
2023-02-18T00:12:36.689Z,2.80
2023-02-18T00:13:36.640Z,3.30
2023-02-18T00:14:36.635Z,3.90
2023-02-18T00:15:36.645Z,2.40
2023-02-18T00:16:36.607Z,2.80
2023-02-18T00:17:36.609Z,2.80
2023-02-18T00:18:36.585Z,3.80
2023-02-18T00:19:36.598Z,3.20
2023-02-18T00:20:36.556Z,2.50
2023-02-18T00:21:36.571Z,2.40
2023-02-18T00:22:36.557Z,2.50
2023-02-18T00:23:36.538Z,2.70
2023-02-18T00:24:36.518Z,3.20
2023-02-18T00:25:36.506Z,2.50
2023-02-18T00:26:36.494Z,2.70
2023-02-18T00:27:36.503Z,2.30
2023-02-18T00:28:36.473Z,3.60
2023-02-18T00:29:36.470Z,3.10
2023-02-18T00:30:36.452Z,3.20
2023-02-18T00:31:36.572Z,2.40
2023-02-18T00:32:36.450Z,2.70
2023-02-18T00:33:36.412Z,2.70
2023-02-18T00:34:36.406Z,2.70
2023-02-18T00:35:36.390Z,2.20
2023-02-18T00:36:36.386Z,2.40
2023-02-18T00:37:36.375Z,2.40
2023-02-18T00:38:36.363Z,3.30
2023-02-18T00:39:36.352Z,3.20
2023-02-18T00:40:36.332Z,3.10
2023-02-18T00:41:36.336Z,2.70
2023-02-18T00:42:36.327Z,3.10
2023-02-18T00:43:36.313Z,2.50
2023-02-18T00:44:36.291Z,3.70
2023-02-18T00:45:36.278Z,3.80
2023-02-18T00:46:36.353Z,3.00
2023-02-18T00:47:36.266Z,2.80
2023-02-18T00:48:36.244Z,2.90
2023-02-18T00:49:36.234Z,3.00
2023-02-18T00:50:36.233Z,2.20
2023-02-18T00:51:36.336Z,3.80
2023-02-18T00:52:36.214Z,3.00
2023-02-18T00:53:36.193Z,2.50
2023-02-18T00:54:36.190Z,3.10
2023-02-18T00:55:36.172Z,4.20
2023-02-18T00:56:36.156Z,2.70
2023-02-18T00:57:36.175Z,2.80
2023-02-18T00:58:36.142Z,2.70
2023-02-18T00:59:36.124Z,4.10
2023-02-18T01:00:36.116Z,2.60
2023-02-18T01:01:36.168Z,2.60
2023-02-18T01:02:36.110Z,3.00
2023-02-18T01:03:36.108Z,2.70
2023-02-18T01:04:36.109Z,2.60
2023-02-18T01:05:36.056Z,2.10
2023-02-18T01:06:36.050Z,2.90
2023-02-18T01:07:36.057Z,2.40
2023-02-18T01:08:36.028Z,2.60
2023-02-18T01:09:36.016Z,2.80
2023-02-18T01:10:35.997Z,2.70
2023-02-18T01:11:35.985Z,2.40
2023-02-18T01:12:35.982Z,3.10
2023-02-18T01:13:36.010Z,2.20
2023-02-18T01:14:35.964Z,3.10
2023-02-18T01:15:35.952Z,2.90
2023-02-18T01:16:35.960Z,2.70
2023-02-18T01:17:35.934Z,2.30
2023-02-18T01:18:35.944Z,3.00
2023-02-18T01:19:35.910Z,2.60
2023-02-18T01:20:35.904Z,3.60
2023-02-18T01:21:35.891Z,2.70
2023-02-18T01:22:35.878Z,2.40
2023-02-18T01:23:35.896Z,2.70
2023-02-18T01:24:35.849Z,2.60
2023-02-18T01:25:35.842Z,2.50
2023-02-18T01:26:35.841Z,2.40
2023-02-18T01:27:36.793Z,2.50
2023-02-18T01:28:35.839Z,2.00
2023-02-18T01:29:35.802Z,3.30
2023-02-18T01:30:35.825Z,2.40
2023-02-18T01:31:36.006Z,2.50
2023-02-18T01:32:35.771Z,3.40
2023-02-18T01:33:35.768Z,2.60
2023-02-18T01:34:35.745Z,3.30
2023-02-18T01:35:35.732Z,2.80
2023-02-18T01:36:35.727Z,2.40
2023-02-18T01:37:35.713Z,2.20
2023-02-18T01:38:35.713Z,2.30
2023-02-18T01:39:35.683Z,2.40
2023-02-18T01:40:35.692Z,2.30
2023-02-18T01:41:35.664Z,2.40
2023-02-18T01:42:35.658Z,2.30
2023-02-18T01:43:35.665Z,2.70
2023-02-18T01:44:35.644Z,2.40
2023-02-18T01:45:35.651Z,2.60
2023-02-18T01:46:35.657Z,2.50
2023-02-18T01:47:35.628Z,2.30
2023-02-18T01:48:36.422Z,2.40
2023-02-18T01:49:35.568Z,2.70
2023-02-18T01:50:35.564Z,3.10
2023-02-18T01:51:35.542Z,2.80
2023-02-18T01:52:35.550Z,2.50
2023-02-18T01:53:35.552Z,2.30
2023-02-18T01:54:35.527Z,1.80
2023-02-18T01:55:35.502Z,2.60
2023-02-18T01:56:35.491Z,2.80
2023-02-18T01:57:36.390Z,2.20
2023-02-18T01:58:35.486Z,2.10
2023-02-18T01:59:35.457Z,2.00
2023-02-18T02:00:35.482Z,3.30
2023-02-18T02:01:35.448Z,3.00
2023-02-18T02:02:35.436Z,2.60
2023-02-18T02:03:35.426Z,3.10
2023-02-18T02:04:35.397Z,2.90
2023-02-18T02:05:35.398Z,2.90
2023-02-18T02:06:35.389Z,2.30
2023-02-18T02:07:35.885Z,2.60
2023-02-18T02:08:35.371Z,3.10
2023-02-18T02:09:35.349Z,2.30
2023-02-18T02:10:35.339Z,2.80
2023-02-18T02:11:35.330Z,2.70
2023-02-18T02:12:35.314Z,2.70
2023-02-18T02:13:35.326Z,2.80
2023-02-18T02:14:35.297Z,2.70
2023-02-18T02:15:35.288Z,2.60
2023-02-18T02:16:35.299Z,3.30
2023-02-18T02:17:35.283Z,3.40
2023-02-18T02:18:35.270Z,2.50
2023-02-18T02:19:35.234Z,3.30
2023-02-18T02:20:35.219Z,2.30
2023-02-18T02:21:35.216Z,2.90
2023-02-18T02:22:35.204Z,3.20
2023-02-18T02:23:35.208Z,3.00
2023-02-18T02:24:35.176Z,3.00
2023-02-18T02:25:35.164Z,2.90
2023-02-18T02:26:35.177Z,2.50
2023-02-18T02:27:35.149Z,3.30
2023-02-18T02:28:35.152Z,2.70
2023-02-18T02:29:35.124Z,3.40
2023-02-18T02:30:35.202Z,2.80
2023-02-18T02:31:35.149Z,2.40
2023-02-18T02:32:35.096Z,2.50
2023-02-18T02:33:35.105Z,2.80
2023-02-18T02:34:35.078Z,2.90
2023-02-18T02:35:35.068Z,2.40
2023-02-18T02:36:35.057Z,2.20
2023-02-18T02:37:35.039Z,2.30
2023-02-18T02:38:35.810Z,2.50
2023-02-18T02:39:35.004Z,2.70
2023-02-18T02:40:35.017Z,2.80
2023-02-18T02:41:34.994Z,3.30
2023-02-18T02:42:34.984Z,2.60
2023-02-18T02:43:35.001Z,3.20
2023-02-18T02:44:34.966Z,3.50
2023-02-18T02:45:35.021Z,2.50
2023-02-18T02:46:34.933Z,2.80
2023-02-18T02:47:34.931Z,2.60
2023-02-18T02:48:34.938Z,2.30
2023-02-18T02:49:34.903Z,3.00
2023-02-18T02:50:34.899Z,3.00
2023-02-18T02:51:34.884Z,2.60
2023-02-18T02:52:34.882Z,2.20
2023-02-18T02:53:34.880Z,2.90
2023-02-18T02:54:34.863Z,2.70
2023-02-18T02:55:34.842Z,2.70
2023-02-18T02:56:34.833Z,2.10
2023-02-18T02:57:34.821Z,2.40
2023-02-18T02:58:34.827Z,3.10
2023-02-18T02:59:34.790Z,2.50
2023-02-18T03:00:34.799Z,2.90
2023-02-18T03:01:34.776Z,2.90
2023-02-18T03:02:34.768Z,2.30
2023-02-18T03:03:34.773Z,2.80
2023-02-18T03:04:34.736Z,2.90
2023-02-18T03:05:34.733Z,2.40
2023-02-18T03:06:34.722Z,2.40
2023-02-18T03:07:34.997Z,2.80
2023-02-18T03:08:34.721Z,3.00
2023-02-18T03:09:34.685Z,2.60
2023-02-18T03:10:34.682Z,2.10
2023-02-18T03:11:34.660Z,2.10
2023-02-18T03:12:34.654Z,2.50
2023-02-18T03:13:34.673Z,2.30
2023-02-18T03:14:34.630Z,2.00
2023-02-18T03:15:34.621Z,2.70
2023-02-18T03:16:34.623Z,2.60
2023-02-18T03:17:34.599Z,2.40
2023-02-18T03:18:34.608Z,2.40
2023-02-18T03:19:34.576Z,2.20
2023-02-18T03:20:34.562Z,2.10
2023-02-18T03:21:34.557Z,2.30
2023-02-18T03:22:34.549Z,2.70
2023-02-18T03:23:34.557Z,2.50
2023-02-18T03:24:34.520Z,2.50
2023-02-18T03:25:34.517Z,2.80
2023-02-18T03:26:35.051Z,2.80
2023-02-18T03:27:34.491Z,2.10
2023-02-18T03:28:34.495Z,2.20
2023-02-18T03:29:34.462Z,2.50
2023-02-18T03:30:34.567Z,2.70
2023-02-18T03:31:34.594Z,2.10
2023-02-18T03:32:34.433Z,2.40
2023-02-18T03:33:34.436Z,2.60
2023-02-18T03:34:34.411Z,2.40
2023-02-18T03:35:34.409Z,2.60
2023-02-18T03:36:34.383Z,2.30
2023-02-18T03:37:34.372Z,2.30
2023-02-18T03:38:34.381Z,2.20
2023-02-18T03:39:34.359Z,2.10
2023-02-18T03:40:34.358Z,2.80
2023-02-18T03:41:34.328Z,1.80
2023-02-18T03:42:34.318Z,2.50
2023-02-18T03:43:34.325Z,2.30
2023-02-18T03:44:34.309Z,2.80
2023-02-18T03:45:34.360Z,2.30
2023-02-18T03:46:34.280Z,2.50
2023-02-18T03:47:34.269Z,2.60
2023-02-18T03:48:34.277Z,2.60
2023-02-18T03:49:34.247Z,2.30
2023-02-18T03:50:34.243Z,2.10
2023-02-18T03:51:34.234Z,2.30
2023-02-18T03:52:34.215Z,2.00
2023-02-18T03:53:34.226Z,2.20
2023-02-18T03:54:34.186Z,2.50
2023-02-18T03:55:34.175Z,2.40
2023-02-18T03:56:34.172Z,2.10
2023-02-18T03:57:34.162Z,1.90
2023-02-18T03:58:34.131Z,1.70
2023-02-18T03:59:34.149Z,1.90
2023-02-18T04:00:34.122Z,2.50
2023-02-18T04:01:34.165Z,2.10
2023-02-18T04:02:34.100Z,2.40
2023-02-18T04:03:34.100Z,2.00
2023-02-18T04:04:34.107Z,2.10
2023-02-18T04:05:34.062Z,3.10
2023-02-18T04:06:34.052Z,2.50
2023-02-18T04:07:34.045Z,1.90
2023-02-18T04:08:34.028Z,1.80
2023-02-18T04:09:34.037Z,2.20
2023-02-18T04:10:34.014Z,2.30
2023-02-18T04:11:33.998Z,2.60
2023-02-18T04:12:33.991Z,2.30
2023-02-18T04:13:33.972Z,2.50
2023-02-18T04:14:33.990Z,2.00
2023-02-18T04:15:33.948Z,2.30
2023-02-18T04:16:33.963Z,2.40
2023-02-18T04:17:33.943Z,2.20
2023-02-18T04:18:33.929Z,2.80
2023-02-18T04:19:33.916Z,1.80
2023-02-18T04:20:33.902Z,2.00
2023-02-18T04:21:33.880Z,2.30
2023-02-18T04:22:33.882Z,2.10
2023-02-18T04:23:33.864Z,2.00
2023-02-18T04:24:33.867Z,2.40
2023-02-18T04:25:33.839Z,2.60
2023-02-18T04:26:33.825Z,2.10
2023-02-18T04:27:33.816Z,2.90
2023-02-18T04:28:33.807Z,2.00
2023-02-18T04:29:33.816Z,1.80
2023-02-18T04:30:33.912Z,2.70
2023-02-18T04:31:33.931Z,2.20
2023-02-18T04:32:33.762Z,1.80
2023-02-18T04:33:33.752Z,1.50
2023-02-18T04:34:33.756Z,1.80
2023-02-18T04:35:33.726Z,1.70
2023-02-18T04:36:33.717Z,2.00
2023-02-18T04:37:33.705Z,2.50
2023-02-18T04:38:33.697Z,2.40
2023-02-18T04:39:33.698Z,1.70
2023-02-18T04:40:33.674Z,2.50
2023-02-18T04:41:33.667Z,2.40
2023-02-18T04:42:33.646Z,1.90
2023-02-18T04:43:33.644Z,2.00
2023-02-18T04:44:33.644Z,2.00
2023-02-18T04:45:34.825Z,2.20
2023-02-18T04:46:33.699Z,2.30
2023-02-18T04:47:33.590Z,1.70
2023-02-18T04:48:33.598Z,1.80
2023-02-18T04:49:33.589Z,2.10
2023-02-18T04:50:33.555Z,2.00
2023-02-18T04:51:33.545Z,2.10
2023-02-18T04:52:33.541Z,1.80
2023-02-18T04:53:33.533Z,2.50
2023-02-18T04:54:33.537Z,1.80
2023-02-18T04:55:33.502Z,2.20
2023-02-18T04:56:33.492Z,1.90
2023-02-18T04:57:33.486Z,1.80
2023-02-18T04:58:33.468Z,1.60
2023-02-18T04:59:33.481Z,2.30
2023-02-18T05:00:33.471Z,2.00
2023-02-18T05:01:33.484Z,1.50
2023-02-18T05:02:33.438Z,1.70
2023-02-18T05:03:33.420Z,2.30
2023-02-18T05:04:33.421Z,2.10
2023-02-18T05:05:33.421Z,2.10
2023-02-18T05:06:33.389Z,2.20
2023-02-18T05:07:33.379Z,2.10
2023-02-18T05:08:33.374Z,2.80
2023-02-18T05:09:33.375Z,1.80
2023-02-18T05:10:33.344Z,2.10
2023-02-18T05:11:33.336Z,2.00
2023-02-18T05:12:33.321Z,2.10
2023-02-18T05:13:33.312Z,2.40
2023-02-18T05:14:33.327Z,2.00
2023-02-18T05:15:33.346Z,2.00
2023-02-18T05:16:33.300Z,2.20
2023-02-18T05:17:33.276Z,2.20
2023-02-18T05:18:33.266Z,1.90
2023-02-18T05:19:33.276Z,1.70
2023-02-18T05:20:33.234Z,2.00
2023-02-18T05:21:33.227Z,1.90
2023-02-18T05:22:39.774Z,1.90
2023-02-18T05:23:33.199Z,1.70
2023-02-18T05:24:33.215Z,2.40
2023-02-18T05:25:33.178Z,1.90
2023-02-18T05:26:33.196Z,1.90
2023-02-18T05:27:33.162Z,2.30
2023-02-18T05:28:33.150Z,2.40
2023-02-18T05:29:33.185Z,2.20
2023-02-18T05:30:33.205Z,2.50
2023-02-18T05:31:33.257Z,2.10
2023-02-18T05:32:33.111Z,2.20
2023-02-18T05:33:33.093Z,1.90
2023-02-18T05:34:33.118Z,2.10
2023-02-18T05:35:33.072Z,2.30
2023-02-18T05:36:33.133Z,2.00
2023-02-18T05:37:33.056Z,2.10
2023-02-18T05:38:33.049Z,2.30
2023-02-18T05:39:33.049Z,2.40
2023-02-18T05:40:33.007Z,2.80
2023-02-18T05:41:33.093Z,1.70
2023-02-18T05:42:33.012Z,1.60
2023-02-18T05:43:33.089Z,1.70
2023-02-18T05:44:33.000Z,1.90
2023-02-18T05:45:32.979Z,1.70
2023-02-18T05:46:33.027Z,1.60
2023-02-18T05:47:32.942Z,2.70
2023-02-18T05:48:32.934Z,1.70
2023-02-18T05:49:32.941Z,1.90
2023-02-18T05:50:32.917Z,2.30
2023-02-18T05:51:32.909Z,1.40
2023-02-18T05:52:32.891Z,2.00
2023-02-18T05:53:32.881Z,1.70
2023-02-18T05:54:32.877Z,2.10
2023-02-18T05:55:32.845Z,1.40
2023-02-18T05:56:32.839Z,1.50
2023-02-18T05:57:32.821Z,1.80
2023-02-18T05:58:32.838Z,1.80
2023-02-18T05:59:32.820Z,1.80
2023-02-18T06:00:32.794Z,2.00
2023-02-18T06:01:32.792Z,2.10
2023-02-18T06:02:32.839Z,1.90
2023-02-18T06:03:32.767Z,2.60
2023-02-18T06:04:32.760Z,1.70
2023-02-18T06:05:32.785Z,1.50
2023-02-18T06:06:32.735Z,1.50
2023-02-18T06:07:32.714Z,1.40
2023-02-18T06:08:32.739Z,2.20
2023-02-18T06:09:32.703Z,1.50
2023-02-18T06:10:32.700Z,2.20
2023-02-18T06:11:32.675Z,1.40
2023-02-18T06:12:32.661Z,2.20
2023-02-18T06:13:32.653Z,2.00
2023-02-18T06:14:32.660Z,1.90
2023-02-18T06:15:32.656Z,2.00
2023-02-18T06:16:32.675Z,1.30
2023-02-18T06:17:32.613Z,2.10
2023-02-18T06:18:32.598Z,1.40
2023-02-18T06:19:32.598Z,1.70
2023-02-18T06:20:32.577Z,1.50
2023-02-18T06:21:32.571Z,2.20
2023-02-18T06:22:32.563Z,2.50
2023-02-18T06:23:32.542Z,1.90
2023-02-18T06:24:32.567Z,2.20
2023-02-18T06:25:32.525Z,1.80
2023-02-18T06:26:32.527Z,1.60
2023-02-18T06:27:32.495Z,1.50
2023-02-18T06:28:32.490Z,1.40
2023-02-18T06:29:32.497Z,1.80
2023-02-18T06:30:32.497Z,1.40
2023-02-18T06:31:32.539Z,1.90
2023-02-18T06:32:32.437Z,1.70
2023-02-18T06:33:32.434Z,1.70
2023-02-18T06:34:32.429Z,1.80
2023-02-18T06:35:32.421Z,1.60
2023-02-18T06:36:32.393Z,1.40
2023-02-18T06:37:32.389Z,1.70
2023-02-18T06:38:32.372Z,1.40
2023-02-18T06:39:32.371Z,2.20
2023-02-18T06:40:32.364Z,1.50
2023-02-18T06:41:32.336Z,2.50
2023-02-18T06:42:32.334Z,1.70
2023-02-18T06:43:32.320Z,1.90
2023-02-18T06:44:32.315Z,1.60
2023-02-18T06:45:32.294Z,1.70
2023-02-18T06:46:32.332Z,1.90
2023-02-18T06:47:32.262Z,1.40
2023-02-18T06:48:32.256Z,1.90
2023-02-18T06:49:32.255Z,1.70
2023-02-18T06:50:32.256Z,2.30
2023-02-18T06:51:32.216Z,1.80
2023-02-18T06:52:32.206Z,1.80
2023-02-18T06:53:32.201Z,1.80
2023-02-18T06:54:32.197Z,2.10
2023-02-18T06:55:32.206Z,1.90
2023-02-18T06:56:32.176Z,1.70
2023-02-18T06:57:32.163Z,1.50
2023-02-18T06:58:32.149Z,1.70
2023-02-18T06:59:32.136Z,1.70
2023-02-18T07:00:32.261Z,2.10
2023-02-18T07:01:32.137Z,2.30
2023-02-18T07:02:32.111Z,2.10
2023-02-18T07:03:32.147Z,1.70
2023-02-18T07:04:32.082Z,1.70
2023-02-18T07:05:32.091Z,3.30
2023-02-18T07:06:32.059Z,1.70
2023-02-18T07:07:32.063Z,2.00
2023-02-18T07:08:32.032Z,1.30
2023-02-18T07:09:32.031Z,1.30
2023-02-18T07:10:32.046Z,2.10
2023-02-18T07:11:32.037Z,1.80
2023-02-18T07:12:31.993Z,1.30
2023-02-18T07:13:31.991Z,1.70
2023-02-18T07:14:31.966Z,1.70
2023-02-18T07:15:31.996Z,1.50
2023-02-18T07:16:31.989Z,1.90
2023-02-18T07:17:31.934Z,1.90
2023-02-18T07:18:31.936Z,1.60
2023-02-18T07:19:31.922Z,1.80
2023-02-18T07:20:31.949Z,1.80
2023-02-18T07:21:31.900Z,2.30
2023-02-18T07:22:31.886Z,1.70
2023-02-18T07:23:31.884Z,1.70
2023-02-18T07:24:31.853Z,1.90
2023-02-18T07:25:31.879Z,1.70
2023-02-18T07:26:31.842Z,1.90
2023-02-18T07:27:31.827Z,2.00
2023-02-18T07:28:31.822Z,2.10
2023-02-18T07:29:31.800Z,2.40
2023-02-18T07:30:31.830Z,1.70
2023-02-18T07:31:31.882Z,1.80
2023-02-18T07:32:31.786Z,1.60
2023-02-18T07:33:31.770Z,2.20
2023-02-18T07:34:31.753Z,1.90
2023-02-18T07:35:31.779Z,1.70
2023-02-18T07:36:31.782Z,1.60
2023-02-18T07:37:31.717Z,1.70
2023-02-18T07:38:31.720Z,1.80
2023-02-18T07:39:31.695Z,2.00
2023-02-18T07:40:31.707Z,2.10
2023-02-18T07:41:31.771Z,2.00
2023-02-18T07:42:31.655Z,2.10
2023-02-18T07:43:31.670Z,2.20
2023-02-18T07:44:31.646Z,1.70
2023-02-18T07:45:31.682Z,2.00
2023-02-18T07:46:31.623Z,2.40
2023-02-18T07:47:31.606Z,2.30
2023-02-18T07:48:31.614Z,2.30
2023-02-18T07:49:31.590Z,1.80
2023-02-18T07:50:31.588Z,2.40
2023-02-18T07:51:31.580Z,2.20
2023-02-18T07:52:31.550Z,2.20
2023-02-18T07:53:31.549Z,1.90
2023-02-18T07:54:31.527Z,2.10
2023-02-18T07:55:31.565Z,1.60
2023-02-18T07:56:31.515Z,2.20
2023-02-18T07:57:31.500Z,1.80
2023-02-18T07:58:31.485Z,1.90
2023-02-18T07:59:31.469Z,2.20
2023-02-18T08:00:31.499Z,1.80
2023-02-18T08:01:31.445Z,1.80
2023-02-18T08:02:31.530Z,1.90
2023-02-18T08:03:31.450Z,1.70
2023-02-18T08:04:31.479Z,1.90
2023-02-18T08:05:31.432Z,2.20
2023-02-18T08:06:31.393Z,1.80
2023-02-18T08:07:31.377Z,1.90
2023-02-18T08:08:31.369Z,2.00
2023-02-18T08:09:31.358Z,2.30
2023-02-18T08:10:31.357Z,2.20
2023-02-18T08:11:31.345Z,2.00
2023-02-18T08:12:31.344Z,2.20
2023-02-18T08:13:31.311Z,2.00
2023-02-18T08:14:31.323Z,2.30
2023-02-18T08:15:31.313Z,2.20
2023-02-18T08:16:31.347Z,1.90
2023-02-18T08:17:31.297Z,1.80
2023-02-18T08:18:31.268Z,2.40
2023-02-18T08:19:31.295Z,2.00
2023-02-18T08:20:31.299Z,1.80
2023-02-18T08:21:31.247Z,2.30
2023-02-18T08:22:31.226Z,2.20
2023-02-18T08:23:31.230Z,2.10
2023-02-18T08:24:31.218Z,2.00
2023-02-18T08:25:31.215Z,2.10
2023-02-18T08:26:31.169Z,2.10
2023-02-18T08:27:31.166Z,2.30
2023-02-18T08:28:31.150Z,2.40
2023-02-18T08:29:31.173Z,2.40
2023-02-18T08:30:31.260Z,2.10
2023-02-18T08:31:31.192Z,2.30
2023-02-18T08:32:31.120Z,2.10
2023-02-18T08:33:31.092Z,2.70
2023-02-18T08:34:31.087Z,2.50
2023-02-18T08:35:31.122Z,2.10
2023-02-18T08:36:31.060Z,2.60
2023-02-18T08:37:31.060Z,2.30
2023-02-18T08:38:31.075Z,2.30
2023-02-18T08:39:31.034Z,2.40
2023-02-18T08:40:31.071Z,2.30
2023-02-18T08:41:31.014Z,2.20
2023-02-18T08:42:31.002Z,2.50
2023-02-18T08:43:31.000Z,3.00
2023-02-18T08:44:30.983Z,2.70
2023-02-18T08:45:31.000Z,2.60
2023-02-18T08:46:35.829Z,3.20
2023-02-18T08:48:15.883Z,2.30
2023-02-18T08:48:30.940Z,2.80
2023-02-18T08:49:30.934Z,3.30
2023-02-18T08:50:30.984Z,3.00
2023-02-18T08:51:30.911Z,2.90
2023-02-18T08:52:30.905Z,2.70
2023-02-18T08:53:30.894Z,3.70
2023-02-18T08:54:30.872Z,3.60
2023-02-18T08:55:30.875Z,2.80
2023-02-18T08:56:30.900Z,3.10
2023-02-18T08:57:30.837Z,3.20
2023-02-18T08:58:30.823Z,3.40
2023-02-18T08:59:30.815Z,3.70
2023-02-18T09:00:30.821Z,3.30
2023-02-18T09:01:30.848Z,3.60
2023-02-18T09:02:30.786Z,3.70
2023-02-18T09:03:30.768Z,3.20
2023-02-18T09:04:30.797Z,4.00
2023-02-18T09:05:30.760Z,3.50
2023-02-18T09:06:30.757Z,3.20
2023-02-18T09:07:30.719Z,3.60
2023-02-18T09:08:30.710Z,3.00
2023-02-18T09:09:30.695Z,3.00
2023-02-18T09:10:30.707Z,3.30
2023-02-18T09:11:30.697Z,3.30
2023-02-18T09:12:30.669Z,3.20
2023-02-18T09:13:30.676Z,3.00
2023-02-18T09:14:30.658Z,3.20
2023-02-18T09:15:30.702Z,2.90
2023-02-18T09:16:30.617Z,3.20
2023-02-18T09:17:30.632Z,3.40
2023-02-18T09:18:30.598Z,3.50
2023-02-18T09:19:30.591Z,3.80
2023-02-18T09:20:30.596Z,3.10
2023-02-18T09:21:30.567Z,3.40
2023-02-18T09:22:30.573Z,3.80
2023-02-18T09:23:30.544Z,3.20
2023-02-18T09:24:30.538Z,3.80
2023-02-18T09:25:30.535Z,3.30
2023-02-18T09:26:30.513Z,3.30
2023-02-18T09:27:30.493Z,3.30
2023-02-18T09:28:30.483Z,3.80
2023-02-18T09:29:30.472Z,3.40
2023-02-18T09:30:30.544Z,3.60
2023-02-18T09:31:30.655Z,3.40
2023-02-18T09:32:35.107Z,3.20
2023-02-18T09:33:30.435Z,3.40
2023-02-18T09:34:30.443Z,3.30
2023-02-18T09:35:30.415Z,3.00
2023-02-18T09:36:30.410Z,3.30
2023-02-18T09:37:30.415Z,3.10
2023-02-18T09:38:30.383Z,3.60
2023-02-18T09:39:30.343Z,2.80
2023-02-18T09:40:30.377Z,2.70
2023-02-18T09:41:30.339Z,3.00
2023-02-18T09:42:30.338Z,3.30
2023-02-18T09:43:30.338Z,3.20
2023-02-18T09:44:30.296Z,2.90
2023-02-18T09:45:30.311Z,2.80
2023-02-18T09:46:30.325Z,2.70
2023-02-18T09:47:30.278Z,2.40
2023-02-18T09:48:30.258Z,2.90
2023-02-18T09:49:30.248Z,2.90
2023-02-18T09:50:30.273Z,2.80
2023-02-18T09:51:30.233Z,2.70
2023-02-18T09:52:30.213Z,2.80
2023-02-18T09:53:30.203Z,2.40
2023-02-18T09:54:30.191Z,2.40
2023-02-18T09:55:30.220Z,2.80
2023-02-18T09:56:30.165Z,3.20
2023-02-18T09:57:30.171Z,2.80
2023-02-18T09:58:30.140Z,2.70
2023-02-18T09:59:30.148Z,2.90
2023-02-18T10:00:30.143Z,2.90
2023-02-18T10:01:30.131Z,3.00
2023-02-18T10:02:30.103Z,3.10
2023-02-18T10:03:30.087Z,3.10
2023-02-18T10:04:30.106Z,2.70
2023-02-18T10:05:30.085Z,2.60
2023-02-18T10:06:30.066Z,2.90
2023-02-18T10:07:30.043Z,2.80
2023-02-18T10:08:30.041Z,2.50
2023-02-18T10:09:30.031Z,3.30
2023-02-18T10:10:30.044Z,2.50
2023-02-18T10:11:30.020Z,3.20
2023-02-18T10:12:30.029Z,3.10
2023-02-18T10:13:29.991Z,3.20
2023-02-18T10:14:29.989Z,3.40
2023-02-18T10:15:29.997Z,2.70
2023-02-18T10:16:30.034Z,2.80
2023-02-18T10:17:29.946Z,3.20
2023-02-18T10:19:29.916Z,3.30
2023-02-18T10:20:29.916Z,3.30
2023-02-18T10:21:29.905Z,3.30
2023-02-18T10:22:29.883Z,2.80
2023-02-18T10:23:29.903Z,3.00
2023-02-18T10:24:29.863Z,3.40
2023-02-18T10:25:29.866Z,3.30
2023-02-18T10:26:29.862Z,3.60
2023-02-18T10:27:29.833Z,3.40
2023-02-18T10:28:29.825Z,3.40
2023-02-18T10:29:29.813Z,3.60
2023-02-18T10:30:29.864Z,4.00
2023-02-18T10:31:29.940Z,4.10
2023-02-18T10:32:29.769Z,3.70
2023-02-18T10:33:29.768Z,4.00
2023-02-18T10:34:29.758Z,4.00
2023-02-18T10:35:29.765Z,4.10
2023-02-18T10:36:29.736Z,4.20
2023-02-18T10:37:29.730Z,4.40
2023-02-18T10:38:29.707Z,5.00
2023-02-18T10:39:29.694Z,4.40
2023-02-18T10:40:29.722Z,4.60
2023-02-18T10:41:29.677Z,4.70
2023-02-18T10:42:29.686Z,4.20
2023-02-18T10:43:29.649Z,4.60
2023-02-18T10:44:29.658Z,3.90
2023-02-18T10:45:29.653Z,4.70
2023-02-18T10:46:29.823Z,4.30
2023-02-18T10:47:29.617Z,4.60
2023-02-18T10:48:29.605Z,4.00
2023-02-18T10:49:29.594Z,3.60
2023-02-18T10:50:29.597Z,4.40
2023-02-18T10:51:29.574Z,4.00
2023-02-18T10:52:29.551Z,3.50
2023-02-18T10:53:29.536Z,3.50
2023-02-18T10:54:29.539Z,3.10
2023-02-18T10:55:29.539Z,3.70
2023-02-18T10:56:29.547Z,3.10
2023-02-18T10:57:29.500Z,3.30
2023-02-18T10:58:29.486Z,3.10
2023-02-18T10:59:29.474Z,2.70
2023-02-18T11:00:29.482Z,2.80
2023-02-18T11:01:29.517Z,2.80
2023-02-18T11:02:29.436Z,2.60
2023-02-18T11:03:29.458Z,2.00
2023-02-18T11:04:29.425Z,2.40
2023-02-18T11:05:29.412Z,2.00
2023-02-18T11:06:29.465Z,2.20
2023-02-18T11:07:29.387Z,2.00
2023-02-18T11:08:29.368Z,1.30
2023-02-18T11:09:29.358Z,1.30
2023-02-18T11:10:29.347Z,1.30
2023-02-18T11:11:29.355Z,1.30
2023-02-18T11:12:29.342Z,1.30
2023-02-18T11:13:29.305Z,1.10
2023-02-18T11:14:29.317Z,1.10
2023-02-18T11:15:29.299Z,1.10
2023-02-18T11:16:29.301Z,1.30
2023-02-18T11:17:29.277Z,1.20
2023-02-18T11:18:29.264Z,1.00
2023-02-18T11:19:29.239Z,0.90
2023-02-18T11:20:29.240Z,1.00
2023-02-18T11:21:29.241Z,0.90
2023-02-18T11:22:29.202Z,0.90
2023-02-18T11:24:20.297Z,0.90
2023-02-18T11:25:21.928Z,0.90
2023-02-18T11:26:21.278Z,0.90
2023-02-18T11:27:21.262Z,0.80
2023-02-18T11:28:21.250Z,1.10
2023-02-18T11:29:21.232Z,0.90
2023-02-18T11:30:21.254Z,0.90
2023-02-18T11:31:21.354Z,0.80
2023-02-18T11:32:21.281Z,0.70
2023-02-18T11:33:21.193Z,0.90
2023-02-18T11:34:21.174Z,0.80
2023-02-18T11:35:21.164Z,0.80
2023-02-18T11:36:21.149Z,0.80
2023-02-18T11:37:21.139Z,0.80
2023-02-18T11:38:21.133Z,0.80
2023-02-18T11:39:21.113Z,0.70
2023-02-18T11:40:21.112Z,0.80
2023-02-18T11:41:21.118Z,0.60
2023-02-18T11:42:21.075Z,1.00
2023-02-18T11:43:21.073Z,0.80
2023-02-18T11:44:21.066Z,0.80
2023-02-18T11:45:21.042Z,0.80
2023-02-18T11:46:21.147Z,1.10
2023-02-18T11:47:21.034Z,0.90
2023-02-18T11:48:21.006Z,0.90
2023-02-18T11:49:21.008Z,0.80
2023-02-18T11:50:20.986Z,0.80
2023-02-18T11:51:21.001Z,0.90
2023-02-18T11:52:20.979Z,0.80
2023-02-18T11:53:20.957Z,0.90
2023-02-18T11:54:20.940Z,0.90
2023-02-18T11:55:20.972Z,0.70
2023-02-18T11:56:20.945Z,0.70
2023-02-18T11:57:20.910Z,0.90
2023-02-18T11:58:20.913Z,1.00
2023-02-18T11:59:20.896Z,0.60
2023-02-18T12:00:20.869Z,1.00
2023-02-18T12:01:20.878Z,0.70
2023-02-18T12:02:20.931Z,0.70
2023-02-18T12:03:20.844Z,0.90
2023-02-18T12:04:20.837Z,0.90
2023-02-18T12:05:20.870Z,0.70
2023-02-18T12:06:20.840Z,0.80
2023-02-18T12:07:20.797Z,0.70
2023-02-18T12:08:20.785Z,0.60
2023-02-18T12:09:20.783Z,0.70
2023-02-18T12:10:20.777Z,0.80
2023-02-18T12:11:20.761Z,0.70
2023-02-18T12:12:20.758Z,0.90
2023-02-18T12:13:20.738Z,0.60
2023-02-18T12:14:20.718Z,0.90
2023-02-18T12:15:20.717Z,0.70
2023-02-18T12:16:20.769Z,0.60
2023-02-18T12:17:20.709Z,0.80
2023-02-18T12:18:20.668Z,0.80
2023-02-18T12:19:20.673Z,1.00
2023-02-18T12:20:20.659Z,0.70
2023-02-18T12:21:20.666Z,0.60
2023-02-18T12:22:20.636Z,1.00
2023-02-18T12:23:20.620Z,1.20
2023-02-18T12:24:20.628Z,0.70
2023-02-18T12:25:20.599Z,0.90
2023-02-18T12:26:20.621Z,0.90
2023-02-18T12:27:20.591Z,0.80
2023-02-18T12:28:20.592Z,1.30
2023-02-18T12:29:20.560Z,1.20
2023-02-18T12:30:20.608Z,1.20
2023-02-18T12:31:20.613Z,1.10
2023-02-18T12:32:20.526Z,1.00
2023-02-18T12:33:20.500Z,1.00
2023-02-18T12:34:20.498Z,0.90
2023-02-18T12:35:20.488Z,1.10
2023-02-18T12:36:20.530Z,2.50
2023-02-18T12:37:20.456Z,1.20
2023-02-18T12:38:20.467Z,1.30
2023-02-18T12:39:20.440Z,1.60
2023-02-18T12:40:20.461Z,1.50
2023-02-18T12:41:20.473Z,1.30
2023-02-18T12:42:20.407Z,1.40
2023-02-18T12:43:20.413Z,1.50
2023-02-18T12:44:20.396Z,1.90
2023-02-18T12:45:20.364Z,1.80
2023-02-18T12:46:20.708Z,1.70
2023-02-18T12:47:20.416Z,1.90
2023-02-18T12:48:20.381Z,1.70
2023-02-18T12:49:20.344Z,1.80
2023-02-18T12:50:20.304Z,2.00
2023-02-18T12:51:20.344Z,2.30
2023-02-18T12:52:20.306Z,1.60
2023-02-18T12:53:20.340Z,2.40
2023-02-18T12:54:20.289Z,1.90
2023-02-18T12:55:20.299Z,2.10
2023-02-18T12:56:20.281Z,1.80
2023-02-18T12:57:20.227Z,2.00
2023-02-18T12:58:20.448Z,2.00
2023-02-18T12:59:20.370Z,2.10
2023-02-18T13:00:20.304Z,2.10
2023-02-18T13:01:20.888Z,2.00
2023-02-18T13:02:20.300Z,2.10
2023-02-18T13:03:20.702Z,2.20
2023-02-18T13:04:20.543Z,2.60
2023-02-18T13:05:20.573Z,2.10
2023-02-18T13:06:20.242Z,2.20
2023-02-18T13:07:20.835Z,2.30
2023-02-18T13:08:20.108Z,2.60
2023-02-18T13:09:20.125Z,2.70
2023-02-18T13:10:20.119Z,2.60
2023-02-18T13:11:20.117Z,2.50
2023-02-18T13:12:20.082Z,2.60
2023-02-18T13:13:20.080Z,2.60
2023-02-18T13:14:20.085Z,2.10
2023-02-18T13:15:20.054Z,2.40
2023-02-18T13:16:20.106Z,2.20
2023-02-18T13:17:20.015Z,2.60
2023-02-18T13:18:19.990Z,2.30
2023-02-18T13:19:20.038Z,2.80
2023-02-18T13:20:19.980Z,2.90